sensor_id;sensor_type;location;lat;lon;timestamp;P1;durP1;ratioP1;P2;durP2;ratioP2
7539;SDS011;3811;49.006;12.076;2022-12-18T00:01:06;53.35;;;21.50;;
7539;SDS011;3811;49.006;12.076;2022-12-18T00:03:40;42.95;;;18.48;;
7539;SDS011;3811;49.006;12.076;2022-12-18T00:06:08;45.67;;;19.08;;
7539;SDS011;3811;49.006;12.076;2022-12-18T00:08:36;36.35;;;16.33;;
7539;SDS011;3811;49.006;12.076;2022-12-18T00:11:04;50.28;;;18.52;;
7539;SDS011;3811;49.006;12.076;2022-12-18T00:13:31;44.67;;;17.27;;
7539;SDS011;3811;49.006;12.076;2022-12-18T00:16:01;38.00;;;16.42;;
7539;SDS011;3811;49.006;12.076;2022-12-18T00:18:28;44.15;;;16.10;;
7539;SDS011;3811;49.006;12.076;2022-12-18T00:20:58;38.30;;;16.45;;
7539;SDS011;3811;49.006;12.076;2022-12-18T00:23:25;46.55;;;18.70;;
7539;SDS011;3811;49.006;12.076;2022-12-18T00:25:54;47.60;;;18.08;;
7539;SDS011;3811;49.006;12.076;2022-12-18T00:28:21;43.88;;;17.77;;
7539;SDS011;3811;49.006;12.076;2022-12-18T00:30:48;45.55;;;17.15;;
7539;SDS011;3811;49.006;12.076;2022-12-18T00:33:16;41.28;;;15.88;;
7539;SDS011;3811;49.006;12.076;2022-12-18T00:35:43;43.90;;;16.83;;
7539;SDS011;3811;49.006;12.076;2022-12-18T00:38:11;38.30;;;15.95;;
7539;SDS011;3811;49.006;12.076;2022-12-18T00:40:38;34.13;;;15.13;;
7539;SDS011;3811;49.006;12.076;2022-12-18T00:43:07;36.92;;;16.67;;
7539;SDS011;3811;49.006;12.076;2022-12-18T00:45:34;40.75;;;16.25;;
7539;SDS011;3811;49.006;12.076;2022-12-18T00:48:02;40.83;;;17.27;;
7539;SDS011;3811;49.006;12.076;2022-12-18T00:50:29;42.13;;;17.83;;
7539;SDS011;3811;49.006;12.076;2022-12-18T00:52:59;44.67;;;17.55;;
7539;SDS011;3811;49.006;12.076;2022-12-18T00:55:26;37.53;;;17.52;;
7539;SDS011;3811;49.006;12.076;2022-12-18T00:57:53;38.28;;;16.25;;
7539;SDS011;3811;49.006;12.076;2022-12-18T01:00:22;32.00;;;14.32;;
7539;SDS011;3811;49.006;12.076;2022-12-18T01:02:50;32.78;;;13.68;;
7539;SDS011;3811;49.006;12.076;2022-12-18T01:05:55;36.33;;;14.68;;
7539;SDS011;3811;49.006;12.076;2022-12-18T01:08:23;49.03;;;16.63;;
7539;SDS011;3811;49.006;12.076;2022-12-18T01:10:50;34.22;;;14.00;;
7539;SDS011;3811;49.006;12.076;2022-12-18T01:13:17;30.20;;;13.63;;
7539;SDS011;3811;49.006;12.076;2022-12-18T01:15:49;43.92;;;18.17;;
7539;SDS011;3811;49.006;12.076;2022-12-18T01:18:17;44.50;;;18.52;;
7539;SDS011;3811;49.006;12.076;2022-12-18T01:20:44;42.92;;;16.75;;
7539;SDS011;3811;49.006;12.076;2022-12-18T01:23:11;46.63;;;16.08;;
7539;SDS011;3811;49.006;12.076;2022-12-18T01:25:39;39.15;;;15.95;;
7539;SDS011;3811;49.006;12.076;2022-12-18T01:28:08;37.28;;;15.70;;
7539;SDS011;3811;49.006;12.076;2022-12-18T01:30:36;39.70;;;15.48;;
7539;SDS011;3811;49.006;12.076;2022-12-18T01:33:05;38.70;;;14.20;;
7539;SDS011;3811;49.006;12.076;2022-12-18T01:35:39;36.65;;;13.95;;
7539;SDS011;3811;49.006;12.076;2022-12-18T01:38:06;33.55;;;14.52;;
7539;SDS011;3811;49.006;12.076;2022-12-18T01:40:36;32.70;;;14.07;;
7539;SDS011;3811;49.006;12.076;2022-12-18T01:43:08;39.47;;;16.40;;
7539;SDS011;3811;49.006;12.076;2022-12-18T01:45:36;34.55;;;16.00;;
7539;SDS011;3811;49.006;12.076;2022-12-18T01:48:05;47.70;;;17.88;;
7539;SDS011;3811;49.006;12.076;2022-12-18T01:50:34;43.40;;;17.15;;
7539;SDS011;3811;49.006;12.076;2022-12-18T01:53:03;35.42;;;15.80;;
7539;SDS011;3811;49.006;12.076;2022-12-18T01:55:43;45.60;;;19.40;;
7539;SDS011;3811;49.006;12.076;2022-12-18T01:58:12;36.50;;;15.85;;
7539;SDS011;3811;49.006;12.076;2022-12-18T02:00:40;37.85;;;15.80;;
7539;SDS011;3811;49.006;12.076;2022-12-18T02:03:09;36.15;;;15.27;;
7539;SDS011;3811;49.006;12.076;2022-12-18T02:05:41;41.22;;;16.52;;
7539;SDS011;3811;49.006;12.076;2022-12-18T02:08:16;43.72;;;16.05;;
7539;SDS011;3811;49.006;12.076;2022-12-18T02:10:48;34.58;;;15.20;;
7539;SDS011;3811;49.006;12.076;2022-12-18T02:13:24;40.08;;;16.15;;
7539;SDS011;3811;49.006;12.076;2022-12-18T02:15:56;35.47;;;16.33;;
7539;SDS011;3811;49.006;12.076;2022-12-18T02:18:30;38.20;;;15.75;;
7539;SDS011;3811;49.006;12.076;2022-12-18T02:21:00;42.08;;;15.75;;
7539;SDS011;3811;49.006;12.076;2022-12-18T02:23:46;39.97;;;16.52;;
7539;SDS011;3811;49.006;12.076;2022-12-18T02:26:19;40.67;;;16.95;;
7539;SDS011;3811;49.006;12.076;2022-12-18T02:28:51;35.58;;;16.38;;
7539;SDS011;3811;49.006;12.076;2022-12-18T02:31:21;38.17;;;15.20;;
7539;SDS011;3811;49.006;12.076;2022-12-18T02:33:50;41.58;;;15.48;;
7539;SDS011;3811;49.006;12.076;2022-12-18T02:36:20;38.92;;;16.55;;
7539;SDS011;3811;49.006;12.076;2022-12-18T02:38:51;34.63;;;15.32;;
7539;SDS011;3811;49.006;12.076;2022-12-18T02:41:24;38.60;;;16.63;;
7539;SDS011;3811;49.006;12.076;2022-12-18T02:43:53;41.42;;;16.02;;
7539;SDS011;3811;49.006;12.076;2022-12-18T02:46:28;30.58;;;12.90;;
7539;SDS011;3811;49.006;12.076;2022-12-18T02:48:57;34.28;;;13.55;;
7539;SDS011;3811;49.006;12.076;2022-12-18T02:51:29;27.83;;;13.55;;
7539;SDS011;3811;49.006;12.076;2022-12-18T02:53:59;28.13;;;11.60;;
7539;SDS011;3811;49.006;12.076;2022-12-18T02:56:35;29.35;;;12.25;;
7539;SDS011;3811;49.006;12.076;2022-12-18T02:59:06;31.17;;;13.48;;
7539;SDS011;3811;49.006;12.076;2022-12-18T03:01:48;27.45;;;13.18;;
7539;SDS011;3811;49.006;12.076;2022-12-18T03:04:20;29.75;;;12.60;;
7539;SDS011;3811;49.006;12.076;2022-12-18T03:06:53;31.02;;;12.25;;
7539;SDS011;3811;49.006;12.076;2022-12-18T03:09:22;29.48;;;13.60;;
7539;SDS011;3811;49.006;12.076;2022-12-18T03:15:18;28.23;;;13.02;;
7539;SDS011;3811;49.006;12.076;2022-12-18T03:17:55;25.60;;;11.48;;
7539;SDS011;3811;49.006;12.076;2022-12-18T03:20:25;29.65;;;12.98;;
7539;SDS011;3811;49.006;12.076;2022-12-18T03:25:41;22.40;;;10.35;;
7539;SDS011;3811;49.006;12.076;2022-12-18T03:28:10;25.80;;;12.60;;
7539;SDS011;3811;49.006;12.076;2022-12-18T03:30:42;33.10;;;13.88;;
7539;SDS011;3811;49.006;12.076;2022-12-18T03:33:12;25.50;;;12.02;;
7539;SDS011;3811;49.006;12.076;2022-12-18T03:35:47;31.17;;;13.48;;
7539;SDS011;3811;49.006;12.076;2022-12-18T03:38:16;29.23;;;12.98;;
7539;SDS011;3811;49.006;12.076;2022-12-18T03:40:50;22.80;;;12.05;;
7539;SDS011;3811;49.006;12.076;2022-12-18T03:43:24;21.35;;;11.20;;
7539;SDS011;3811;49.006;12.076;2022-12-18T03:45:58;23.90;;;11.82;;
7539;SDS011;3811;49.006;12.076;2022-12-18T03:48:29;27.30;;;11.77;;
7539;SDS011;3811;49.006;12.076;2022-12-18T03:51:07;26.52;;;12.32;;
7539;SDS011;3811;49.006;12.076;2022-12-18T03:53:38;30.73;;;12.75;;
7539;SDS011;3811;49.006;12.076;2022-12-18T03:56:07;25.27;;;11.48;;
7539;SDS011;3811;49.006;12.076;2022-12-18T03:58:39;20.33;;;11.50;;
7539;SDS011;3811;49.006;12.076;2022-12-18T04:01:17;27.55;;;11.38;;
7539;SDS011;3811;49.006;12.076;2022-12-18T04:03:47;24.40;;;12.48;;
7539;SDS011;3811;49.006;12.076;2022-12-18T04:06:18;28.98;;;13.60;;
7539;SDS011;3811;49.006;12.076;2022-12-18T04:08:45;25.17;;;11.63;;
7539;SDS011;3811;49.006;12.076;2022-12-18T04:11:16;23.73;;;11.95;;
7539;SDS011;3811;49.006;12.076;2022-12-18T04:13:46;27.92;;;12.95;;
7539;SDS011;3811;49.006;12.076;2022-12-18T04:16:20;29.42;;;12.80;;
7539;SDS011;3811;49.006;12.076;2022-12-18T04:18:51;28.52;;;13.43;;
7539;SDS011;3811;49.006;12.076;2022-12-18T04:21:20;26.15;;;13.35;;
7539;SDS011;3811;49.006;12.076;2022-12-18T04:23:48;27.92;;;12.65;;
7539;SDS011;3811;49.006;12.076;2022-12-18T04:26:19;24.13;;;12.20;;
7539;SDS011;3811;49.006;12.076;2022-12-18T04:28:58;31.27;;;14.38;;
7539;SDS011;3811;49.006;12.076;2022-12-18T04:31:26;24.13;;;12.18;;
7539;SDS011;3811;49.006;12.076;2022-12-18T04:33:54;24.17;;;11.52;;
7539;SDS011;3811;49.006;12.076;2022-12-18T04:36:22;27.05;;;11.73;;
7539;SDS011;3811;49.006;12.076;2022-12-18T04:38:49;31.00;;;12.75;;
7539;SDS011;3811;49.006;12.076;2022-12-18T04:41:17;25.35;;;13.07;;
7539;SDS011;3811;49.006;12.076;2022-12-18T04:43:46;29.58;;;13.25;;
7539;SDS011;3811;49.006;12.076;2022-12-18T04:46:14;27.15;;;13.18;;
7539;SDS011;3811;49.006;12.076;2022-12-18T04:48:44;29.48;;;13.95;;
7539;SDS011;3811;49.006;12.076;2022-12-18T04:51:12;28.10;;;13.88;;
7539;SDS011;3811;49.006;12.076;2022-12-18T04:53:39;26.45;;;12.65;;
7539;SDS011;3811;49.006;12.076;2022-12-18T04:56:07;25.75;;;11.75;;
7539;SDS011;3811;49.006;12.076;2022-12-18T04:58:36;26.98;;;11.65;;
7539;SDS011;3811;49.006;12.076;2022-12-18T05:01:04;20.30;;;10.18;;
7539;SDS011;3811;49.006;12.076;2022-12-18T05:03:32;24.27;;;10.80;;
7539;SDS011;3811;49.006;12.076;2022-12-18T05:06:01;21.38;;;10.02;;
7539;SDS011;3811;49.006;12.076;2022-12-18T05:08:28;25.85;;;10.52;;
7539;SDS011;3811;49.006;12.076;2022-12-18T05:10:59;21.42;;;10.35;;
7539;SDS011;3811;49.006;12.076;2022-12-18T05:13:26;26.38;;;11.18;;
7539;SDS011;3811;49.006;12.076;2022-12-18T05:15:54;21.80;;;11.65;;
7539;SDS011;3811;49.006;12.076;2022-12-18T05:18:21;25.17;;;11.43;;
7539;SDS011;3811;49.006;12.076;2022-12-18T05:20:49;26.27;;;11.25;;
7539;SDS011;3811;49.006;12.076;2022-12-18T05:23:18;22.15;;;10.45;;
7539;SDS011;3811;49.006;12.076;2022-12-18T05:25:46;29.67;;;11.25;;
7539;SDS011;3811;49.006;12.076;2022-12-18T05:28:14;24.70;;;11.00;;
7539;SDS011;3811;49.006;12.076;2022-12-18T05:30:41;19.38;;;9.15;;
7539;SDS011;3811;49.006;12.076;2022-12-18T05:33:08;23.40;;;10.57;;
7539;SDS011;3811;49.006;12.076;2022-12-18T05:35:35;28.73;;;12.25;;
7539;SDS011;3811;49.006;12.076;2022-12-18T05:38:02;27.70;;;11.57;;
7539;SDS011;3811;49.006;12.076;2022-12-18T05:40:31;25.25;;;13.27;;
7539;SDS011;3811;49.006;12.076;2022-12-18T05:42:58;28.63;;;12.45;;
7539;SDS011;3811;49.006;12.076;2022-12-18T05:45:25;25.50;;;11.95;;
7539;SDS011;3811;49.006;12.076;2022-12-18T05:47:53;22.38;;;11.50;;
7539;SDS011;3811;49.006;12.076;2022-12-18T05:50:20;29.92;;;11.65;;
7539;SDS011;3811;49.006;12.076;2022-12-18T05:52:47;29.17;;;12.45;;
7539;SDS011;3811;49.006;12.076;2022-12-18T05:55:15;27.92;;;12.98;;
7539;SDS011;3811;49.006;12.076;2022-12-18T05:57:43;26.17;;;10.90;;
7539;SDS011;3811;49.006;12.076;2022-12-18T06:00:11;25.70;;;12.02;;
7539;SDS011;3811;49.006;12.076;2022-12-18T06:02:39;25.50;;;11.50;;
7539;SDS011;3811;49.006;12.076;2022-12-18T06:05:06;25.13;;;10.95;;
7539;SDS011;3811;49.006;12.076;2022-12-18T06:07:34;24.23;;;11.45;;
7539;SDS011;3811;49.006;12.076;2022-12-18T06:10:01;22.58;;;10.80;;
7539;SDS011;3811;49.006;12.076;2022-12-18T06:12:28;26.45;;;11.00;;
7539;SDS011;3811;49.006;12.076;2022-12-18T06:14:57;30.20;;;13.55;;
7539;SDS011;3811;49.006;12.076;2022-12-18T06:17:27;24.17;;;10.95;;
7539;SDS011;3811;49.006;12.076;2022-12-18T06:19:55;22.25;;;11.85;;
7539;SDS011;3811;49.006;12.076;2022-12-18T06:22:22;30.17;;;13.35;;
7539;SDS011;3811;49.006;12.076;2022-12-18T06:24:49;26.02;;;10.73;;
7539;SDS011;3811;49.006;12.076;2022-12-18T06:27:17;26.00;;;12.27;;
7539;SDS011;3811;49.006;12.076;2022-12-18T06:29:44;31.27;;;13.25;;
7539;SDS011;3811;49.006;12.076;2022-12-18T06:32:14;21.77;;;10.68;;
7539;SDS011;3811;49.006;12.076;2022-12-18T06:34:41;30.90;;;10.70;;
7539;SDS011;3811;49.006;12.076;2022-12-18T06:37:08;28.95;;;12.60;;
7539;SDS011;3811;49.006;12.076;2022-12-18T06:39:36;26.02;;;11.75;;
7539;SDS011;3811;49.006;12.076;2022-12-18T06:42:03;32.13;;;14.32;;
7539;SDS011;3811;49.006;12.076;2022-12-18T06:44:31;30.75;;;12.85;;
7539;SDS011;3811;49.006;12.076;2022-12-18T06:46:58;33.80;;;13.52;;
7539;SDS011;3811;49.006;12.076;2022-12-18T06:49:26;29.63;;;13.00;;
7539;SDS011;3811;49.006;12.076;2022-12-18T06:51:54;35.72;;;12.60;;
7539;SDS011;3811;49.006;12.076;2022-12-18T06:54:21;32.58;;;13.45;;
7539;SDS011;3811;49.006;12.076;2022-12-18T06:56:48;29.70;;;12.40;;
7539;SDS011;3811;49.006;12.076;2022-12-18T06:59:15;32.70;;;13.55;;
7539;SDS011;3811;49.006;12.076;2022-12-18T07:01:43;27.52;;;12.90;;
7539;SDS011;3811;49.006;12.076;2022-12-18T07:04:10;37.90;;;14.27;;
7539;SDS011;3811;49.006;12.076;2022-12-18T07:06:38;31.20;;;14.52;;
7539;SDS011;3811;49.006;12.076;2022-12-18T07:09:15;26.50;;;12.20;;
7539;SDS011;3811;49.006;12.076;2022-12-18T07:11:42;31.80;;;12.98;;
7539;SDS011;3811;49.006;12.076;2022-12-18T07:14:09;35.35;;;13.30;;
7539;SDS011;3811;49.006;12.076;2022-12-18T07:16:37;27.90;;;13.15;;
7539;SDS011;3811;49.006;12.076;2022-12-18T07:19:04;31.38;;;12.43;;
7539;SDS011;3811;49.006;12.076;2022-12-18T07:24:02;30.67;;;13.55;;
7539;SDS011;3811;49.006;12.076;2022-12-18T07:26:29;30.05;;;12.00;;
7539;SDS011;3811;49.006;12.076;2022-12-18T07:28:57;29.73;;;12.60;;
7539;SDS011;3811;49.006;12.076;2022-12-18T07:31:25;33.78;;;13.57;;
7539;SDS011;3811;49.006;12.076;2022-12-18T07:33:52;34.25;;;12.90;;
7539;SDS011;3811;49.006;12.076;2022-12-18T07:36:19;35.95;;;13.77;;
7539;SDS011;3811;49.006;12.076;2022-12-18T07:38:47;32.30;;;13.63;;
7539;SDS011;3811;49.006;12.076;2022-12-18T07:41:16;33.35;;;12.80;;
7539;SDS011;3811;49.006;12.076;2022-12-18T07:43:43;23.75;;;9.48;;
7539;SDS011;3811;49.006;12.076;2022-12-18T07:46:11;28.60;;;12.48;;
7539;SDS011;3811;49.006;12.076;2022-12-18T07:48:39;32.28;;;12.77;;
7539;SDS011;3811;49.006;12.076;2022-12-18T07:51:07;28.63;;;12.02;;
7539;SDS011;3811;49.006;12.076;2022-12-18T07:53:35;34.20;;;14.18;;
7539;SDS011;3811;49.006;12.076;2022-12-18T07:56:04;36.03;;;14.65;;
7539;SDS011;3811;49.006;12.076;2022-12-18T07:58:33;31.45;;;13.63;;
7539;SDS011;3811;49.006;12.076;2022-12-18T08:01:04;31.70;;;15.15;;
7539;SDS011;3811;49.006;12.076;2022-12-18T08:03:31;31.73;;;13.77;;
7539;SDS011;3811;49.006;12.076;2022-12-18T08:05:59;31.58;;;13.02;;
7539;SDS011;3811;49.006;12.076;2022-12-18T08:08:26;40.90;;;16.27;;
7539;SDS011;3811;49.006;12.076;2022-12-18T08:10:54;32.88;;;11.77;;
7539;SDS011;3811;49.006;12.076;2022-12-18T08:13:21;27.83;;;13.15;;
7539;SDS011;3811;49.006;12.076;2022-12-18T08:15:56;21.27;;;10.82;;
7539;SDS011;3811;49.006;12.076;2022-12-18T08:18:24;26.15;;;11.43;;
7539;SDS011;3811;49.006;12.076;2022-12-18T08:20:51;21.50;;;10.95;;
7539;SDS011;3811;49.006;12.076;2022-12-18T08:23:18;26.63;;;12.80;;
7539;SDS011;3811;49.006;12.076;2022-12-18T08:25:46;23.52;;;11.68;;
7539;SDS011;3811;49.006;12.076;2022-12-18T08:28:13;26.38;;;11.55;;
7539;SDS011;3811;49.006;12.076;2022-12-18T08:30:41;27.67;;;12.00;;
7539;SDS011;3811;49.006;12.076;2022-12-18T08:33:10;26.38;;;12.00;;
7539;SDS011;3811;49.006;12.076;2022-12-18T08:35:37;27.90;;;12.25;;
7539;SDS011;3811;49.006;12.076;2022-12-18T08:38:05;21.45;;;11.07;;
7539;SDS011;3811;49.006;12.076;2022-12-18T08:40:32;31.45;;;12.95;;
7539;SDS011;3811;49.006;12.076;2022-12-18T08:42:59;28.13;;;14.07;;
7539;SDS011;3811;49.006;12.076;2022-12-18T08:45:44;26.02;;;11.75;;
7539;SDS011;3811;49.006;12.076;2022-12-18T08:48:12;32.38;;;13.90;;
7539;SDS011;3811;49.006;12.076;2022-12-18T08:50:40;27.50;;;12.73;;
7539;SDS011;3811;49.006;12.076;2022-12-18T08:53:08;23.45;;;11.80;;
7539;SDS011;3811;49.006;12.076;2022-12-18T08:55:35;22.15;;;10.95;;
7539;SDS011;3811;49.006;12.076;2022-12-18T08:58:02;23.17;;;12.65;;
7539;SDS011;3811;49.006;12.076;2022-12-18T09:00:30;22.67;;;11.48;;
7539;SDS011;3811;49.006;12.076;2022-12-18T09:02:57;21.67;;;11.27;;
7539;SDS011;3811;49.006;12.076;2022-12-18T09:05:26;24.17;;;9.60;;
7539;SDS011;3811;49.006;12.076;2022-12-18T09:07:53;21.52;;;11.13;;
7539;SDS011;3811;49.006;12.076;2022-12-18T09:10:20;23.90;;;11.38;;
7539;SDS011;3811;49.006;12.076;2022-12-18T09:12:47;21.23;;;10.48;;
7539;SDS011;3811;49.006;12.076;2022-12-18T09:15:15;22.48;;;11.95;;
7539;SDS011;3811;49.006;12.076;2022-12-18T09:17:42;23.83;;;11.48;;
7539;SDS011;3811;49.006;12.076;2022-12-18T09:20:10;34.85;;;13.90;;
7539;SDS011;3811;49.006;12.076;2022-12-18T09:22:38;25.25;;;13.35;;
7539;SDS011;3811;49.006;12.076;2022-12-18T09:25:06;20.35;;;11.88;;
7539;SDS011;3811;49.006;12.076;2022-12-18T09:27:34;27.02;;;12.98;;
7539;SDS011;3811;49.006;12.076;2022-12-18T09:30:01;24.65;;;11.88;;
7539;SDS011;3811;49.006;12.076;2022-12-18T09:32:29;19.63;;;10.93;;
7539;SDS011;3811;49.006;12.076;2022-12-18T09:34:56;25.88;;;12.52;;
7539;SDS011;3811;49.006;12.076;2022-12-18T09:37:23;25.50;;;13.25;;
7539;SDS011;3811;49.006;12.076;2022-12-18T09:39:52;25.35;;;12.57;;
7539;SDS011;3811;49.006;12.076;2022-12-18T09:42:20;21.85;;;10.95;;
7539;SDS011;3811;49.006;12.076;2022-12-18T09:44:49;23.77;;;10.88;;
7539;SDS011;3811;49.006;12.076;2022-12-18T09:47:18;27.35;;;11.20;;
7539;SDS011;3811;49.006;12.076;2022-12-18T09:49:49;22.55;;;11.07;;
7539;SDS011;3811;49.006;12.076;2022-12-18T09:52:19;22.30;;;10.52;;
7539;SDS011;3811;49.006;12.076;2022-12-18T09:54:53;23.13;;;11.02;;
7539;SDS011;3811;49.006;12.076;2022-12-18T09:57:22;17.85;;;10.15;;
7539;SDS011;3811;49.006;12.076;2022-12-18T09:59:52;24.70;;;11.75;;
7539;SDS011;3811;49.006;12.076;2022-12-18T10:02:23;23.90;;;11.82;;
7539;SDS011;3811;49.006;12.076;2022-12-18T10:04:56;26.60;;;11.45;;
7539;SDS011;3811;49.006;12.076;2022-12-18T10:07:29;26.30;;;12.48;;
7539;SDS011;3811;49.006;12.076;2022-12-18T10:10:06;25.17;;;12.93;;
7539;SDS011;3811;49.006;12.076;2022-12-18T10:12:37;28.17;;;13.50;;
7539;SDS011;3811;49.006;12.076;2022-12-18T10:15:12;28.45;;;13.05;;
7539;SDS011;3811;49.006;12.076;2022-12-18T10:17:47;23.38;;;12.25;;
7539;SDS011;3811;49.006;12.076;2022-12-18T10:20:20;24.30;;;10.77;;
7539;SDS011;3811;49.006;12.076;2022-12-18T10:22:55;20.50;;;9.63;;
7539;SDS011;3811;49.006;12.076;2022-12-18T10:25:31;18.88;;;11.10;;
7539;SDS011;3811;49.006;12.076;2022-12-18T10:28:06;20.35;;;10.07;;
7539;SDS011;3811;49.006;12.076;2022-12-18T10:30:37;25.48;;;12.45;;
7539;SDS011;3811;49.006;12.076;2022-12-18T10:33:05;24.90;;;13.23;;
7539;SDS011;3811;49.006;12.076;2022-12-18T10:35:32;22.95;;;12.65;;
7539;SDS011;3811;49.006;12.076;2022-12-18T10:38:05;19.65;;;9.95;;
7539;SDS011;3811;49.006;12.076;2022-12-18T10:40:36;23.45;;;9.77;;
7539;SDS011;3811;49.006;12.076;2022-12-18T10:43:16;24.17;;;11.50;;
7539;SDS011;3811;49.006;12.076;2022-12-18T10:45:57;20.90;;;10.63;;
7539;SDS011;3811;49.006;12.076;2022-12-18T10:48:25;23.58;;;11.35;;
7539;SDS011;3811;49.006;12.076;2022-12-18T10:50:53;21.50;;;11.68;;
7539;SDS011;3811;49.006;12.076;2022-12-18T10:53:22;20.65;;;10.77;;
7539;SDS011;3811;49.006;12.076;2022-12-18T10:55:51;25.70;;;11.13;;
7539;SDS011;3811;49.006;12.076;2022-12-18T10:58:22;21.17;;;10.35;;
7539;SDS011;3811;49.006;12.076;2022-12-18T11:01:04;19.67;;;10.63;;
7539;SDS011;3811;49.006;12.076;2022-12-18T11:03:33;18.75;;;9.23;;
7539;SDS011;3811;49.006;12.076;2022-12-18T11:06:02;25.20;;;11.70;;
7539;SDS011;3811;49.006;12.076;2022-12-18T11:08:30;24.50;;;10.48;;
7539;SDS011;3811;49.006;12.076;2022-12-18T11:10:59;18.58;;;10.27;;
7539;SDS011;3811;49.006;12.076;2022-12-18T11:13:27;23.75;;;11.77;;
7539;SDS011;3811;49.006;12.076;2022-12-18T11:15:55;22.30;;;11.00;;
7539;SDS011;3811;49.006;12.076;2022-12-18T11:18:24;25.83;;;11.20;;
7539;SDS011;3811;49.006;12.076;2022-12-18T11:20:53;21.25;;;11.23;;
7539;SDS011;3811;49.006;12.076;2022-12-18T11:23:22;24.65;;;11.18;;
7539;SDS011;3811;49.006;12.076;2022-12-18T11:25:51;23.27;;;10.57;;
7539;SDS011;3811;49.006;12.076;2022-12-18T11:28:28;21.25;;;10.15;;
7539;SDS011;3811;49.006;12.076;2022-12-18T11:31:11;20.50;;;10.07;;
7539;SDS011;3811;49.006;12.076;2022-12-18T11:34:00;23.08;;;9.75;;
7539;SDS011;3811;49.006;12.076;2022-12-18T11:36:32;16.10;;;9.55;;
7539;SDS011;3811;49.006;12.076;2022-12-18T11:39:03;17.92;;;10.15;;
7539;SDS011;3811;49.006;12.076;2022-12-18T11:41:39;22.13;;;12.02;;
7539;SDS011;3811;49.006;12.076;2022-12-18T11:44:35;21.45;;;10.63;;
7539;SDS011;3811;49.006;12.076;2022-12-18T11:47:09;23.08;;;10.57;;
7539;SDS011;3811;49.006;12.076;2022-12-18T11:49:47;22.33;;;11.25;;
7539;SDS011;3811;49.006;12.076;2022-12-18T11:52:16;24.77;;;11.93;;
7539;SDS011;3811;49.006;12.076;2022-12-18T11:54:50;26.02;;;11.73;;
7539;SDS011;3811;49.006;12.076;2022-12-18T11:57:22;24.38;;;11.23;;
7539;SDS011;3811;49.006;12.076;2022-12-18T12:00:04;19.70;;;10.48;;
7539;SDS011;3811;49.006;12.076;2022-12-18T12:02:47;19.95;;;10.40;;
7539;SDS011;3811;49.006;12.076;2022-12-18T12:05:27;19.63;;;11.20;;
7539;SDS011;3811;49.006;12.076;2022-12-18T12:08:05;24.95;;;12.07;;
7539;SDS011;3811;49.006;12.076;2022-12-18T12:10:40;27.85;;;11.63;;
7539;SDS011;3811;49.006;12.076;2022-12-18T12:13:19;24.15;;;11.40;;
7539;SDS011;3811;49.006;12.076;2022-12-18T12:15:52;24.77;;;11.90;;
7539;SDS011;3811;49.006;12.076;2022-12-18T12:21:33;18.40;;;9.90;;
7539;SDS011;3811;49.006;12.076;2022-12-18T12:24:09;22.08;;;11.50;;
7539;SDS011;3811;49.006;12.076;2022-12-18T12:26:49;22.13;;;11.13;;
7539;SDS011;3811;49.006;12.076;2022-12-18T12:29:26;20.65;;;11.23;;
7539;SDS011;3811;49.006;12.076;2022-12-18T12:32:07;17.88;;;8.90;;
7539;SDS011;3811;49.006;12.076;2022-12-18T12:34:52;25.05;;;10.48;;
7539;SDS011;3811;49.006;12.076;2022-12-18T12:37:30;25.27;;;11.23;;
7539;SDS011;3811;49.006;12.076;2022-12-18T12:40:02;20.33;;;10.98;;
7539;SDS011;3811;49.006;12.076;2022-12-18T12:42:32;22.10;;;11.38;;
7539;SDS011;3811;49.006;12.076;2022-12-18T12:45:20;21.35;;;10.95;;
7539;SDS011;3811;49.006;12.076;2022-12-18T12:47:54;22.42;;;11.95;;
7539;SDS011;3811;49.006;12.076;2022-12-18T12:50:24;25.17;;;12.05;;
7539;SDS011;3811;49.006;12.076;2022-12-18T12:52:53;21.10;;;11.60;;
7539;SDS011;3811;49.006;12.076;2022-12-18T12:55:22;22.77;;;10.70;;
7539;SDS011;3811;49.006;12.076;2022-12-18T12:57:54;23.65;;;11.52;;
7539;SDS011;3811;49.006;12.076;2022-12-18T13:00:22;20.98;;;11.55;;
7539;SDS011;3811;49.006;12.076;2022-12-18T13:02:51;21.80;;;9.82;;
7539;SDS011;3811;49.006;12.076;2022-12-18T13:05:26;22.33;;;11.55;;
7539;SDS011;3811;49.006;12.076;2022-12-18T13:07:59;18.17;;;9.88;;
7539;SDS011;3811;49.006;12.076;2022-12-18T13:10:32;20.10;;;10.52;;
7539;SDS011;3811;49.006;12.076;2022-12-18T13:13:01;17.20;;;10.40;;
7539;SDS011;3811;49.006;12.076;2022-12-18T13:15:37;22.13;;;10.80;;
7539;SDS011;3811;49.006;12.076;2022-12-18T13:18:18;21.02;;;11.60;;
7539;SDS011;3811;49.006;12.076;2022-12-18T13:20:46;22.85;;;10.75;;
7539;SDS011;3811;49.006;12.076;2022-12-18T13:23:31;21.33;;;10.52;;
7539;SDS011;3811;49.006;12.076;2022-12-18T13:26:10;21.40;;;9.32;;
7539;SDS011;3811;49.006;12.076;2022-12-18T13:29:06;16.63;;;10.05;;
7539;SDS011;3811;49.006;12.076;2022-12-18T13:34:47;29.80;;;11.05;;
7539;SDS011;3811;49.006;12.076;2022-12-18T13:37:39;22.38;;;10.95;;
7539;SDS011;3811;49.006;12.076;2022-12-18T13:42:53;19.35;;;9.65;;
7539;SDS011;3811;49.006;12.076;2022-12-18T13:46:05;21.58;;;10.68;;
7539;SDS011;3811;49.006;12.076;2022-12-18T13:48:49;20.30;;;10.13;;
7539;SDS011;3811;49.006;12.076;2022-12-18T13:51:26;21.75;;;11.32;;
7539;SDS011;3811;49.006;12.076;2022-12-18T13:54:21;24.55;;;12.00;;
7539;SDS011;3811;49.006;12.076;2022-12-18T13:56:52;24.80;;;13.32;;
7539;SDS011;3811;49.006;12.076;2022-12-18T13:59:19;23.17;;;11.50;;
7539;SDS011;3811;49.006;12.076;2022-12-18T14:01:50;27.58;;;13.80;;
7539;SDS011;3811;49.006;12.076;2022-12-18T14:04:19;20.77;;;11.88;;
7539;SDS011;3811;49.006;12.076;2022-12-18T14:06:49;25.23;;;12.27;;
7539;SDS011;3811;49.006;12.076;2022-12-18T14:09:17;22.85;;;12.10;;
7539;SDS011;3811;49.006;12.076;2022-12-18T14:11:49;22.25;;;11.68;;
7539;SDS011;3811;49.006;12.076;2022-12-18T14:14:17;28.38;;;13.02;;
7539;SDS011;3811;49.006;12.076;2022-12-18T14:16:45;25.67;;;12.93;;
7539;SDS011;3811;49.006;12.076;2022-12-18T14:19:15;29.95;;;14.27;;
7539;SDS011;3811;49.006;12.076;2022-12-18T14:21:47;27.05;;;13.88;;
7539;SDS011;3811;49.006;12.076;2022-12-18T14:24:17;25.60;;;12.48;;
7539;SDS011;3811;49.006;12.076;2022-12-18T14:26:45;25.58;;;12.15;;
7539;SDS011;3811;49.006;12.076;2022-12-18T14:29:18;23.25;;;12.40;;
7539;SDS011;3811;49.006;12.076;2022-12-18T14:31:46;24.90;;;11.43;;
7539;SDS011;3811;49.006;12.076;2022-12-18T14:34:16;27.23;;;13.05;;
7539;SDS011;3811;49.006;12.076;2022-12-18T14:36:51;27.52;;;13.65;;
7539;SDS011;3811;49.006;12.076;2022-12-18T14:39:21;23.20;;;13.77;;
7539;SDS011;3811;49.006;12.076;2022-12-18T14:41:49;26.75;;;12.90;;
7539;SDS011;3811;49.006;12.076;2022-12-18T14:44:16;27.70;;;12.93;;
7539;SDS011;3811;49.006;12.076;2022-12-18T14:46:50;30.65;;;13.70;;
7539;SDS011;3811;49.006;12.076;2022-12-18T14:49:20;26.52;;;13.15;;
7539;SDS011;3811;49.006;12.076;2022-12-18T14:51:51;23.15;;;12.05;;
7539;SDS011;3811;49.006;12.076;2022-12-18T14:54:19;24.98;;;13.98;;
7539;SDS011;3811;49.006;12.076;2022-12-18T14:56:47;27.13;;;12.65;;
7539;SDS011;3811;49.006;12.076;2022-12-18T14:59:17;26.35;;;13.35;;
7539;SDS011;3811;49.006;12.076;2022-12-18T15:01:53;23.60;;;12.52;;
7539;SDS011;3811;49.006;12.076;2022-12-18T15:04:27;25.73;;;13.82;;
7539;SDS011;3811;49.006;12.076;2022-12-18T15:07:05;22.67;;;12.82;;
7539;SDS011;3811;49.006;12.076;2022-12-18T15:09:35;26.30;;;12.23;;
7539;SDS011;3811;49.006;12.076;2022-12-18T15:12:02;25.55;;;13.40;;
7539;SDS011;3811;49.006;12.076;2022-12-18T15:14:31;26.75;;;12.73;;